sensor_id;sensor_type;location;lat;lon;timestamp;P1;durP1;ratioP1;P2;durP2;ratioP2
57842;SDS011;43673;51.058;3.734;2022-09-12T00:02:19;15.27;;;13.50;;
57842;SDS011;43673;51.058;3.734;2022-09-12T00:04:45;16.05;;;13.93;;
57842;SDS011;43673;51.058;3.734;2022-09-12T00:07:11;17.02;;;14.43;;
57842;SDS011;43673;51.058;3.734;2022-09-12T00:09:37;19.38;;;14.50;;
57842;SDS011;43673;51.058;3.734;2022-09-12T00:12:03;18.27;;;13.65;;
57842;SDS011;43673;51.058;3.734;2022-09-12T00:14:29;16.80;;;14.20;;
57842;SDS011;43673;51.058;3.734;2022-09-12T00:16:58;16.75;;;13.23;;
57842;SDS011;43673;51.058;3.734;2022-09-12T00:19:25;21.15;;;16.95;;
57842;SDS011;43673;51.058;3.734;2022-09-12T00:21:52;18.15;;;15.05;;
57842;SDS011;43673;51.058;3.734;2022-09-12T00:24:17;17.63;;;15.18;;
57842;SDS011;43673;51.058;3.734;2022-09-12T00:26:43;23.17;;;16.33;;
57842;SDS011;43673;51.058;3.734;2022-09-12T00:29:16;19.42;;;15.07;;
57842;SDS011;43673;51.058;3.734;2022-09-12T00:31:44;15.63;;;13.35;;
57842;SDS011;43673;51.058;3.734;2022-09-12T00:34:10;18.05;;;15.52;;
57842;SDS011;43673;51.058;3.734;2022-09-12T00:36:37;16.38;;;14.32;;
57842;SDS011;43673;51.058;3.734;2022-09-12T00:39:03;21.00;;;16.85;;
57842;SDS011;43673;51.058;3.734;2022-09-12T00:41:30;20.92;;;15.85;;
57842;SDS011;43673;51.058;3.734;2022-09-12T00:49:10;22.17;;;16.80;;
57842;SDS011;43673;51.058;3.734;2022-09-12T00:51:45;20.75;;;16.10;;
57842;SDS011;43673;51.058;3.734;2022-09-12T00:54:22;20.50;;;16.27;;
57842;SDS011;43673;51.058;3.734;2022-09-12T00:56:52;19.27;;;16.58;;
57842;SDS011;43673;51.058;3.734;2022-09-12T00:59:26;23.67;;;15.68;;
57842;SDS011;43673;51.058;3.734;2022-09-12T01:01:55;18.40;;;16.38;;
57842;SDS011;43673;51.058;3.734;2022-09-12T01:04:23;20.83;;;16.23;;
57842;SDS011;43673;51.058;3.734;2022-09-12T01:09:19;20.63;;;16.02;;
57842;SDS011;43673;51.058;3.734;2022-09-12T01:11:47;21.80;;;15.57;;
57842;SDS011;43673;51.058;3.734;2022-09-12T01:14:15;19.92;;;16.25;;
57842;SDS011;43673;51.058;3.734;2022-09-12T01:16:42;20.85;;;16.80;;
57842;SDS011;43673;51.058;3.734;2022-09-12T01:22:25;21.58;;;16.85;;
57842;SDS011;43673;51.058;3.734;2022-09-12T01:36:50;18.65;;;16.58;;
57842;SDS011;43673;51.058;3.734;2022-09-12T01:39:05;22.25;;;18.33;;
57842;SDS011;43673;51.058;3.734;2022-09-12T01:41:55;20.02;;;16.83;;
57842;SDS011;43673;51.058;3.734;2022-09-12T01:44:38;22.25;;;17.42;;
57842;SDS011;43673;51.058;3.734;2022-09-12T01:52:52;22.80;;;17.05;;
57842;SDS011;43673;51.058;3.734;2022-09-12T01:55:24;22.90;;;17.80;;
57842;SDS011;43673;51.058;3.734;2022-09-12T01:58:08;24.05;;;18.55;;
57842;SDS011;43673;51.058;3.734;2022-09-12T02:00:50;24.20;;;17.38;;
57842;SDS011;43673;51.058;3.734;2022-09-12T02:03:24;24.85;;;18.40;;
57842;SDS011;43673;51.058;3.734;2022-09-12T02:06:07;23.23;;;18.50;;
57842;SDS011;43673;51.058;3.734;2022-09-12T02:08:50;26.58;;;20.65;;
57842;SDS011;43673;51.058;3.734;2022-09-12T02:11:19;23.98;;;19.00;;
57842;SDS011;43673;51.058;3.734;2022-09-12T02:19:23;21.85;;;17.73;;
57842;SDS011;43673;51.058;3.734;2022-09-12T02:21:54;26.42;;;19.25;;
57842;SDS011;43673;51.058;3.734;2022-09-12T02:24:23;28.25;;;19.80;;
57842;SDS011;43673;51.058;3.734;2022-09-12T02:26:55;26.83;;;19.17;;
57842;SDS011;43673;51.058;3.734;2022-09-12T02:29:25;26.23;;;19.20;;
57842;SDS011;43673;51.058;3.734;2022-09-12T02:31:58;22.52;;;18.98;;
57842;SDS011;43673;51.058;3.734;2022-09-12T02:34:36;25.05;;;20.02;;
57842;SDS011;43673;51.058;3.734;2022-09-12T02:37:17;26.58;;;18.98;;
57842;SDS011;43673;51.058;3.734;2022-09-12T02:39:49;28.60;;;19.15;;
57842;SDS011;43673;51.058;3.734;2022-09-12T02:42:21;28.48;;;20.55;;
57842;SDS011;43673;51.058;3.734;2022-09-12T02:44:48;24.38;;;19.67;;
57842;SDS011;43673;51.058;3.734;2022-09-12T02:47:26;24.30;;;19.25;;
57842;SDS011;43673;51.058;3.734;2022-09-12T02:49:53;22.00;;;18.02;;
57842;SDS011;43673;51.058;3.734;2022-09-12T02:52:20;23.48;;;18.48;;
57842;SDS011;43673;51.058;3.734;2022-09-12T02:54:46;26.98;;;21.05;;
57842;SDS011;43673;51.058;3.734;2022-09-12T02:57:16;23.38;;;19.40;;
57842;SDS011;43673;51.058;3.734;2022-09-12T02:59:43;25.85;;;19.35;;
57842;SDS011;43673;51.058;3.734;2022-09-12T03:11:05;60.97;;;34.22;;
57842;SDS011;43673;51.058;3.734;2022-09-12T03:13:54;38.17;;;24.98;;
57842;SDS011;43673;51.058;3.734;2022-09-12T03:16:39;32.53;;;19.95;;
57842;SDS011;43673;51.058;3.734;2022-09-12T03:22:08;61.17;;;34.40;;
57842;SDS011;43673;51.058;3.734;2022-09-12T03:25:25;100.07;;;55.30;;
57842;SDS011;43673;51.058;3.734;2022-09-12T03:27:28;94.35;;;49.70;;
57842;SDS011;43673;51.058;3.734;2022-09-12T03:29:57;41.95;;;27.35;;
57842;SDS011;43673;51.058;3.734;2022-09-12T03:32:40;36.67;;;23.02;;
57842;SDS011;43673;51.058;3.734;2022-09-12T03:35:08;82.03;;;44.63;;
57842;SDS011;43673;51.058;3.734;2022-09-12T03:37:34;79.70;;;42.33;;
57842;SDS011;43673;51.058;3.734;2022-09-12T03:40:00;83.13;;;46.70;;
57842;SDS011;43673;51.058;3.734;2022-09-12T03:42:27;52.20;;;29.55;;
57842;SDS011;43673;51.058;3.734;2022-09-12T03:44:53;35.78;;;24.40;;
57842;SDS011;43673;51.058;3.734;2022-09-12T03:47:19;56.60;;;32.10;;
57842;SDS011;43673;51.058;3.734;2022-09-12T03:49:44;62.60;;;33.58;;
57842;SDS011;43673;51.058;3.734;2022-09-12T03:52:10;58.40;;;34.03;;
57842;SDS011;43673;51.058;3.734;2022-09-12T03:54:36;56.47;;;31.23;;
57842;SDS011;43673;51.058;3.734;2022-09-12T03:57:02;46.72;;;29.10;;
57842;SDS011;43673;51.058;3.734;2022-09-12T03:59:28;74.28;;;41.97;;
57842;SDS011;43673;51.058;3.734;2022-09-12T04:01:53;119.18;;;59.00;;
57842;SDS011;43673;51.058;3.734;2022-09-12T04:04:19;80.68;;;43.25;;
57842;SDS011;43673;51.058;3.734;2022-09-12T04:06:44;52.33;;;29.27;;
57842;SDS011;43673;51.058;3.734;2022-09-12T04:09:10;48.95;;;29.08;;
57842;SDS011;43673;51.058;3.734;2022-09-12T04:11:36;48.28;;;30.02;;
57842;SDS011;43673;51.058;3.734;2022-09-12T04:14:01;40.13;;;24.52;;
57842;SDS011;43673;51.058;3.734;2022-09-12T04:16:27;45.35;;;27.10;;
57842;SDS011;43673;51.058;3.734;2022-09-12T04:18:52;45.17;;;26.48;;
57842;SDS011;43673;51.058;3.734;2022-09-12T04:21:19;36.97;;;22.20;;
57842;SDS011;43673;51.058;3.734;2022-09-12T04:23:48;40.42;;;24.45;;
57842;SDS011;43673;51.058;3.734;2022-09-12T04:26:14;35.35;;;23.45;;
57842;SDS011;43673;51.058;3.734;2022-09-12T04:28:41;34.65;;;22.23;;
57842;SDS011;43673;51.058;3.734;2022-09-12T04:31:08;40.22;;;24.42;;
57842;SDS011;43673;51.058;3.734;2022-09-12T04:33:37;33.60;;;22.65;;
57842;SDS011;43673;51.058;3.734;2022-09-12T04:36:06;38.10;;;24.17;;
57842;SDS011;43673;51.058;3.734;2022-09-12T04:38:34;38.13;;;22.80;;
57842;SDS011;43673;51.058;3.734;2022-09-12T04:41:08;38.83;;;24.60;;
57842;SDS011;43673;51.058;3.734;2022-09-12T04:43:35;35.30;;;23.65;;
57842;SDS011;43673;51.058;3.734;2022-09-12T04:46:07;34.63;;;22.92;;
57842;SDS011;43673;51.058;3.734;2022-09-12T04:48:34;32.78;;;22.42;;
57842;SDS011;43673;51.058;3.734;2022-09-12T04:51:13;30.08;;;21.10;;
57842;SDS011;43673;51.058;3.734;2022-09-12T04:53:49;34.63;;;22.38;;
57842;SDS011;43673;51.058;3.734;2022-09-12T04:56:16;35.28;;;23.45;;
57842;SDS011;43673;51.058;3.734;2022-09-12T04:58:42;29.88;;;20.67;;
57842;SDS011;43673;51.058;3.734;2022-09-12T05:01:09;44.15;;;23.60;;
57842;SDS011;43673;51.058;3.734;2022-09-12T05:03:37;42.90;;;24.70;;
57842;SDS011;43673;51.058;3.734;2022-09-12T05:06:04;29.17;;;19.70;;
57842;SDS011;43673;51.058;3.734;2022-09-12T05:08:31;35.42;;;22.48;;
57842;SDS011;43673;51.058;3.734;2022-09-12T05:11:02;31.27;;;20.83;;
57842;SDS011;43673;51.058;3.734;2022-09-12T05:13:41;35.10;;;21.05;;
57842;SDS011;43673;51.058;3.734;2022-09-12T05:16:08;27.08;;;19.58;;
57842;SDS011;43673;51.058;3.734;2022-09-12T05:18:35;29.17;;;19.45;;
57842;SDS011;43673;51.058;3.734;2022-09-12T05:21:03;26.08;;;18.88;;
57842;SDS011;43673;51.058;3.734;2022-09-12T05:23:31;30.52;;;19.77;;
57842;SDS011;43673;51.058;3.734;2022-09-12T05:25:57;26.73;;;18.10;;
57842;SDS011;43673;51.058;3.734;2022-09-12T05:28:27;26.75;;;19.40;;
57842;SDS011;43673;51.058;3.734;2022-09-12T05:31:02;32.58;;;19.98;;
57842;SDS011;43673;51.058;3.734;2022-09-12T05:33:29;34.50;;;19.65;;
57842;SDS011;43673;51.058;3.734;2022-09-12T05:35:55;28.92;;;19.38;;
57842;SDS011;43673;51.058;3.734;2022-09-12T05:38:22;29.88;;;19.48;;
57842;SDS011;43673;51.058;3.734;2022-09-12T05:40:50;27.92;;;18.77;;
57842;SDS011;43673;51.058;3.734;2022-09-12T05:43:16;26.77;;;17.70;;
57842;SDS011;43673;51.058;3.734;2022-09-12T05:45:42;27.65;;;17.30;;
57842;SDS011;43673;51.058;3.734;2022-09-12T05:48:08;41.20;;;21.67;;
57842;SDS011;43673;51.058;3.734;2022-09-12T05:50:34;40.40;;;20.23;;
57842;SDS011;43673;51.058;3.734;2022-09-12T05:53:00;32.00;;;17.95;;
57842;SDS011;43673;51.058;3.734;2022-09-12T05:55:25;33.10;;;18.33;;
57842;SDS011;43673;51.058;3.734;2022-09-12T05:57:51;38.65;;;19.52;;
57842;SDS011;43673;51.058;3.734;2022-09-12T06:00:18;30.05;;;16.58;;
57842;SDS011;43673;51.058;3.734;2022-09-12T06:02:49;42.92;;;16.73;;
57842;SDS011;43673;51.058;3.734;2022-09-12T06:05:17;38.28;;;16.58;;
57842;SDS011;43673;51.058;3.734;2022-09-12T06:07:44;26.67;;;15.45;;
57842;SDS011;43673;51.058;3.734;2022-09-12T06:10:11;20.95;;;13.82;;
57842;SDS011;43673;51.058;3.734;2022-09-12T06:12:37;18.48;;;13.63;;
57842;SDS011;43673;51.058;3.734;2022-09-12T06:15:03;17.77;;;12.60;;
57842;SDS011;43673;51.058;3.734;2022-09-12T06:17:29;16.08;;;11.63;;
57842;SDS011;43673;51.058;3.734;2022-09-12T06:19:55;19.08;;;12.07;;
57842;SDS011;43673;51.058;3.734;2022-09-12T06:22:21;15.57;;;12.23;;
57842;SDS011;43673;51.058;3.734;2022-09-12T06:24:46;17.63;;;12.32;;
57842;SDS011;43673;51.058;3.734;2022-09-12T06:27:12;15.65;;;11.57;;
57842;SDS011;43673;51.058;3.734;2022-09-12T06:29:37;16.48;;;12.32;;
57842;SDS011;43673;51.058;3.734;2022-09-12T06:32:03;16.58;;;10.90;;
57842;SDS011;43673;51.058;3.734;2022-09-12T06:34:29;15.75;;;11.00;;
57842;SDS011;43673;51.058;3.734;2022-09-12T06:36:55;16.15;;;10.32;;
57842;SDS011;43673;51.058;3.734;2022-09-12T06:39:21;12.38;;;9.63;;
57842;SDS011;43673;51.058;3.734;2022-09-12T06:41:47;11.75;;;9.57;;
57842;SDS011;43673;51.058;3.734;2022-09-12T06:44:15;13.65;;;11.93;;
57842;SDS011;43673;51.058;3.734;2022-09-12T06:46:44;12.13;;;9.95;;
57842;SDS011;43673;51.058;3.734;2022-09-12T06:49:10;11.57;;;9.35;;
57842;SDS011;43673;51.058;3.734;2022-09-12T06:51:36;12.45;;;10.20;;
57842;SDS011;43673;51.058;3.734;2022-09-12T06:54:02;15.18;;;10.07;;
57842;SDS011;43673;51.058;3.734;2022-09-12T06:56:28;12.40;;;9.00;;
57842;SDS011;43673;51.058;3.734;2022-09-12T06:58:54;12.02;;;9.30;;
57842;SDS011;43673;51.058;3.734;2022-09-12T07:01:22;9.43;;;8.45;;
57842;SDS011;43673;51.058;3.734;2022-09-12T07:03:50;9.98;;;8.93;;
57842;SDS011;43673;51.058;3.734;2022-09-12T07:06:18;8.80;;;7.90;;
57842;SDS011;43673;51.058;3.734;2022-09-12T07:08:48;8.45;;;7.65;;
57842;SDS011;43673;51.058;3.734;2022-09-12T07:11:18;12.30;;;8.65;;
57842;SDS011;43673;51.058;3.734;2022-09-12T07:13:50;9.65;;;8.70;;
57842;SDS011;43673;51.058;3.734;2022-09-12T07:16:17;11.57;;;9.35;;
57842;SDS011;43673;51.058;3.734;2022-09-12T07:18:44;10.10;;;8.48;;
57842;SDS011;43673;51.058;3.734;2022-09-12T07:21:14;13.40;;;8.80;;
57842;SDS011;43673;51.058;3.734;2022-09-12T07:23:40;11.57;;;7.57;;
57842;SDS011;43673;51.058;3.734;2022-09-12T07:26:07;8.20;;;7.40;;
57842;SDS011;43673;51.058;3.734;2022-09-12T07:28:34;10.48;;;7.72;;
57842;SDS011;43673;51.058;3.734;2022-09-12T07:31:04;9.25;;;7.85;;
57842;SDS011;43673;51.058;3.734;2022-09-12T07:33:31;8.52;;;7.43;;
57842;SDS011;43673;51.058;3.734;2022-09-12T07:36:01;11.70;;;7.40;;
57842;SDS011;43673;51.058;3.734;2022-09-12T07:38:36;11.65;;;7.63;;
57842;SDS011;43673;51.058;3.734;2022-09-12T07:41:16;11.02;;;7.32;;
57842;SDS011;43673;51.058;3.734;2022-09-12T07:43:44;7.80;;;6.75;;
57842;SDS011;43673;51.058;3.734;2022-09-12T07:46:12;8.82;;;6.57;;
57842;SDS011;43673;51.058;3.734;2022-09-12T07:48:38;6.88;;;6.15;;
57842;SDS011;43673;51.058;3.734;2022-09-12T07:51:05;8.48;;;6.43;;
57842;SDS011;43673;51.058;3.734;2022-09-12T07:53:33;11.73;;;6.82;;
57842;SDS011;43673;51.058;3.734;2022-09-12T07:56:04;6.20;;;5.63;;
57842;SDS011;43673;51.058;3.734;2022-09-12T07:58:31;9.25;;;5.47;;
57842;SDS011;43673;51.058;3.734;2022-09-12T08:01:05;9.57;;;6.90;;
57842;SDS011;43673;51.058;3.734;2022-09-12T08:03:32;7.25;;;5.60;;
57842;SDS011;43673;51.058;3.734;2022-09-12T08:12:20;9.02;;;5.40;;
57842;SDS011;43673;51.058;3.734;2022-09-12T08:14:46;6.05;;;5.10;;
57842;SDS011;43673;51.058;3.734;2022-09-12T08:17:12;5.28;;;4.78;;
57842;SDS011;43673;51.058;3.734;2022-09-12T08:19:38;5.20;;;4.63;;
57842;SDS011;43673;51.058;3.734;2022-09-12T08:22:04;6.75;;;5.13;;
57842;SDS011;43673;51.058;3.734;2022-09-12T08:24:29;5.72;;;4.50;;
57842;SDS011;43673;51.058;3.734;2022-09-12T08:26:56;5.93;;;4.40;;
57842;SDS011;43673;51.058;3.734;2022-09-12T08:29:22;6.07;;;4.93;;
57842;SDS011;43673;51.058;3.734;2022-09-12T08:31:47;5.15;;;4.65;;
57842;SDS011;43673;51.058;3.734;2022-09-12T08:34:13;6.07;;;4.50;;
57842;SDS011;43673;51.058;3.734;2022-09-12T08:36:42;5.03;;;4.05;;
57842;SDS011;43673;51.058;3.734;2022-09-12T08:39:10;4.82;;;4.15;;
57842;SDS011;43673;51.058;3.734;2022-09-12T08:41:45;5.88;;;4.68;;
57842;SDS011;43673;51.058;3.734;2022-09-12T08:44:22;6.72;;;4.60;;
57842;SDS011;43673;51.058;3.734;2022-09-12T08:47:02;4.45;;;4.07;;
57842;SDS011;43673;51.058;3.734;2022-09-12T08:49:42;4.65;;;3.92;;
57842;SDS011;43673;51.058;3.734;2022-09-12T08:52:23;5.45;;;4.18;;
57842;SDS011;43673;51.058;3.734;2022-09-12T08:54:50;4.15;;;3.75;;
57842;SDS011;43673;51.058;3.734;2022-09-12T08:57:16;7.65;;;4.22;;
57842;SDS011;43673;51.058;3.734;2022-09-12T08:59:43;4.60;;;3.95;;
57842;SDS011;43673;51.058;3.734;2022-09-12T09:05:00;5.15;;;3.55;;
57842;SDS011;43673;51.058;3.734;2022-09-12T09:15:46;4.85;;;3.50;;
57842;SDS011;43673;51.058;3.734;2022-09-12T09:18:21;3.95;;;3.40;;
57842;SDS011;43673;51.058;3.734;2022-09-12T09:20:56;6.22;;;3.92;;
57842;SDS011;43673;51.058;3.734;2022-09-12T09:25:59;4.43;;;4.03;;
57842;SDS011;43673;51.058;3.734;2022-09-12T09:28:35;4.85;;;4.07;;
57842;SDS011;43673;51.058;3.734;2022-09-12T09:33:38;3.78;;;2.97;;
57842;SDS011;43673;51.058;3.734;2022-09-12T09:36:06;3.65;;;3.20;;
57842;SDS011;43673;51.058;3.734;2022-09-12T09:41:14;5.45;;;3.90;;
57842;SDS011;43673;51.058;3.734;2022-09-12T09:43:43;7.80;;;3.50;;
57842;SDS011;43673;51.058;3.734;2022-09-12T09:46:09;3.90;;;3.50;;
57842;SDS011;43673;51.058;3.734;2022-09-12T09:48:36;4.45;;;3.47;;
57842;SDS011;43673;51.058;3.734;2022-09-12T09:51:06;3.40;;;3.10;;
57842;SDS011;43673;51.058;3.734;2022-09-12T09:56:34;4.13;;;3.30;;
57842;SDS011;43673;51.058;3.734;2022-09-12T09:59:07;4.20;;;3.80;;
57842;SDS011;43673;51.058;3.734;2022-09-12T10:01:35;3.40;;;3.10;;
57842;SDS011;43673;51.058;3.734;2022-09-12T10:04:03;6.20;;;3.30;;
57842;SDS011;43673;51.058;3.734;2022-09-12T10:06:32;4.38;;;3.65;;
57842;SDS011;43673;51.058;3.734;2022-09-12T10:11:37;7.65;;;3.90;;
57842;SDS011;43673;51.058;3.734;2022-09-12T10:14:03;4.40;;;4.00;;
57842;SDS011;43673;51.058;3.734;2022-09-12T10:16:31;3.58;;;3.05;;
57842;SDS011;43673;51.058;3.734;2022-09-12T10:18:59;4.00;;;3.60;;
57842;SDS011;43673;51.058;3.734;2022-09-12T10:21:33;3.92;;;3.50;;
57842;SDS011;43673;51.058;3.734;2022-09-12T10:24:05;5.43;;;3.78;;
57842;SDS011;43673;51.058;3.734;2022-09-12T10:26:48;6.10;;;5.55;;
57842;SDS011;43673;51.058;3.734;2022-09-12T10:29:20;4.40;;;3.97;;
57842;SDS011;43673;51.058;3.734;2022-09-12T10:31:50;4.07;;;3.38;;
57842;SDS011;43673;51.058;3.734;2022-09-12T10:37:03;4.38;;;2.63;;
57842;SDS011;43673;51.058;3.734;2022-09-12T10:39:31;3.60;;;3.03;;
57842;SDS011;43673;51.058;3.734;2022-09-12T10:41:59;4.38;;;3.20;;
57842;SDS011;43673;51.058;3.734;2022-09-12T10:44:26;3.40;;;3.13;;
57842;SDS011;43673;51.058;3.734;2022-09-12T10:46:55;5.90;;;3.30;;
57842;SDS011;43673;51.058;3.734;2022-09-12T10:49:22;5.10;;;2.90;;
57842;SDS011;43673;51.058;3.734;2022-09-12T10:51:56;4.72;;;3.30;;
57842;SDS011;43673;51.058;3.734;2022-09-12T10:54:39;3.30;;;3.00;;
57842;SDS011;43673;51.058;3.734;2022-09-12T11:08:36;4.78;;;3.08;;
57842;SDS011;43673;51.058;3.734;2022-09-12T11:11:36;6.30;;;3.10;;
57842;SDS011;43673;51.058;3.734;2022-09-12T11:14:25;4.15;;;3.13;;
57842;SDS011;43673;51.058;3.734;2022-09-12T11:17:17;5.20;;;2.85;;
57842;SDS011;43673;51.058;3.734;2022-09-12T11:22:45;4.32;;;2.72;;
57842;SDS011;43673;51.058;3.734;2022-09-12T11:26:01;8.88;;;3.20;;
57842;SDS011;43673;51.058;3.734;2022-09-12T11:28:34;4.25;;;3.05;;
57842;SDS011;43673;51.058;3.734;2022-09-12T11:33:51;3.88;;;2.97;;
57842;SDS011;43673;51.058;3.734;2022-09-12T11:36:31;6.43;;;3.45;;
57842;SDS011;43673;51.058;3.734;2022-09-12T11:39:14;7.55;;;3.95;;
57842;SDS011;43673;51.058;3.734;2022-09-12T11:41:54;6.43;;;3.85;;
57842;SDS011;43673;51.058;3.734;2022-09-12T11:44:27;3.50;;;3.20;;
57842;SDS011;43673;51.058;3.734;2022-09-12T11:47:05;8.15;;;3.45;;
57842;SDS011;43673;51.058;3.734;2022-09-12T11:49:50;6.82;;;3.67;;
57842;SDS011;43673;51.058;3.734;2022-09-12T11:52:19;6.05;;;3.97;;
57842;SDS011;43673;51.058;3.734;2022-09-12T11:57:38;3.58;;;3.00;;
57842;SDS011;43673;51.058;3.734;2022-09-12T12:00:20;5.15;;;3.58;;
57842;SDS011;43673;51.058;3.734;2022-09-12T12:06:01;4.57;;;3.28;;
57842;SDS011;43673;51.058;3.734;2022-09-12T12:08:31;5.13;;;2.80;;
57842;SDS011;43673;51.058;3.734;2022-09-12T12:11:03;3.88;;;2.88;;
57842;SDS011;43673;51.058;3.734;2022-09-12T12:13:34;4.35;;;3.08;;
57842;SDS011;43673;51.058;3.734;2022-09-12T12:18:55;4.78;;;2.90;;
57842;SDS011;43673;51.058;3.734;2022-09-12T12:24:11;3.00;;;2.72;;
57842;SDS011;43673;51.058;3.734;2022-09-12T12:29:03;2.45;;;2.10;;
57842;SDS011;43673;51.058;3.734;2022-09-12T12:34:37;4.03;;;2.80;;
57842;SDS011;43673;51.058;3.734;2022-09-12T12:45:00;5.65;;;2.85;;
57842;SDS011;43673;51.058;3.734;2022-09-12T12:47:31;5.20;;;2.38;;
57842;SDS011;43673;51.058;3.734;2022-09-12T12:52:57;5.05;;;2.75;;
57842;SDS011;43673;51.058;3.734;2022-09-12T12:55:31;7.55;;;2.83;;
57842;SDS011;43673;51.058;3.734;2022-09-12T12:58:01;5.30;;;3.10;;
57842;SDS011;43673;51.058;3.734;2022-09-12T13:00:33;3.78;;;2.67;;
57842;SDS011;43673;51.058;3.734;2022-09-12T13:05:48;2.85;;;2.42;;
57842;SDS011;43673;51.058;3.734;2022-09-12T13:11:42;3.45;;;2.10;;
57842;SDS011;43673;51.058;3.734;2022-09-12T13:13:43;3.13;;;2.40;;
57842;SDS011;43673;51.058;3.734;2022-09-12T13:16:29;3.28;;;2.97;;
57842;SDS011;43673;51.058;3.734;2022-09-12T13:18:55;4.00;;;2.80;;
57842;SDS011;43673;51.058;3.734;2022-09-12T13:21:28;3.83;;;1.95;;
57842;SDS011;43673;51.058;3.734;2022-09-12T13:26:27;8.07;;;2.67;;
57842;SDS011;43673;51.058;3.734;2022-09-12T13:29:14;2.50;;;2.30;;
57842;SDS011;43673;51.058;3.734;2022-09-12T13:31:43;4.28;;;2.33;;
57842;SDS011;43673;51.058;3.734;2022-09-12T13:34:12;4.38;;;2.70;;
57842;SDS011;43673;51.058;3.734;2022-09-12T13:42:41;4.82;;;2.60;;
57842;SDS011;43673;51.058;3.734;2022-09-12T13:45:19;3.67;;;2.60;;
57842;SDS011;43673;51.058;3.734;2022-09-12T13:47:51;6.82;;;2.80;;
57842;SDS011;43673;51.058;3.734;2022-09-12T13:50:21;8.10;;;2.78;;
57842;SDS011;43673;51.058;3.734;2022-09-12T13:53:10;5.10;;;3.00;;
57842;SDS011;43673;51.058;3.734;2022-09-12T13:55:40;2.38;;;2.17;;
57842;SDS011;43673;51.058;3.734;2022-09-12T13:58:23;2.08;;;1.98;;
57842;SDS011;43673;51.058;3.734;2022-09-12T14:01:09;3.55;;;3.10;;
57842;SDS011;43673;51.058;3.734;2022-09-12T14:03:39;2.72;;;2.30;;
57842;SDS011;43673;51.058;3.734;2022-09-12T14:06:43;2.55;;;2.35;;
57842;SDS011;43673;51.058;3.734;2022-09-12T14:09:13;3.92;;;2.42;;
57842;SDS011;43673;51.058;3.734;2022-09-12T14:11:45;2.70;;;2.40;;
57842;SDS011;43673;51.058;3.734;2022-09-12T14:14:22;2.67;;;2.33;;
57842;SDS011;43673;51.058;3.734;2022-09-12T14:16:55;4.63;;;2.47;;
57842;SDS011;43673;51.058;3.734;2022-09-12T14:19:22;2.65;;;2.45;;
57842;SDS011;43673;51.058;3.734;2022-09-12T14:21:50;3.15;;;2.20;;
57842;SDS011;43673;51.058;3.734;2022-09-12T14:24:20;2.88;;;2.35;;
57842;SDS011;43673;51.058;3.734;2022-09-12T14:26:52;3.17;;;2.37;;
57842;SDS011;43673;51.058;3.734;2022-09-12T14:29:20;3.83;;;2.47;;
57842;SDS011;43673;51.058;3.734;2022-09-12T14:31:58;4.63;;;2.50;;
57842;SDS011;43673;51.058;3.734;2022-09-12T14:34:26;7.32;;;2.33;;
57842;SDS011;43673;51.058;3.734;2022-09-12T14:36:53;2.83;;;1.98;;
57842;SDS011;43673;51.058;3.734;2022-09-12T14:42:12;2.70;;;2.15;;
57842;SDS011;43673;51.058;3.734;2022-09-12T14:44:50;4.53;;;2.22;;
57842;SDS011;43673;51.058;3.734;2022-09-12T14:47:23;3.55;;;2.95;;
57842;SDS011;43673;51.058;3.734;2022-09-12T14:49:51;4.80;;;2.90;;
57842;SDS011;43673;51.058;3.734;2022-09-12T14:55:22;5.72;;;2.50;;
57842;SDS011;43673;51.058;3.734;2022-09-12T14:57:42;3.22;;;2.28;;
57842;SDS011;43673;51.058;3.734;2022-09-12T15:02:44;3.70;;;2.15;;
57842;SDS011;43673;51.058;3.734;2022-09-12T15:07:38;4.80;;;2.50;;
57842;SDS011;43673;51.058;3.734;2022-09-12T15:12:47;2.55;;;2.33;;
57842;SDS011;43673;51.058;3.734;2022-09-12T15:15:15;4.55;;;2.05;;
57842;SDS011;43673;51.058;3.734;2022-09-12T15:17:44;3.00;;;2.25;;
57842;SDS011;43673;51.058;3.734;2022-09-12T15:20:11;2.97;;;2.17;;
57842;SDS011;43673;51.058;3.734;2022-09-12T15:22:38;3.10;;;2.58;;
57842;SDS011;43673;51.058;3.734;2022-09-12T15:25:05;4.75;;;2.63;;
57842;SDS011;43673;51.058;3.734;2022-09-12T15:27:31;4.53;;;2.50;;
57842;SDS011;43673;51.058;3.734;2022-09-12T15:29:57;3.38;;;2.20;;
57842;SDS011;43673;51.058;3.734;2022-09-12T15:32:24;5.32;;;2.58;;
57842;SDS011;43673;51.058;3.734;2022-09-12T15:34:51;6.03;;;2.65;;
57842;SDS011;43673;51.058;3.734;2022-09-12T15:37:18;2.85;;;2.13;;
57842;SDS011;43673;51.058;3.734;2022-09-12T15:39:46;2.88;;;2.58;;
57842;SDS011;43673;51.058;3.734;2022-09-12T15:42:12;5.78;;;2.72;;
57842;SDS011;43673;51.058;3.734;2022-09-12T15:44:39;3.92;;;2.50;;
57842;SDS011;43673;51.058;3.734;2022-09-12T15:47:07;4.22;;;2.47;;
57842;SDS011;43673;51.058;3.734;2022-09-12T15:49:36;3.88;;;2.85;;
57842;SDS011;43673;51.058;3.734;2022-09-12T15:52:02;4.00;;;2.58;;
57842;SDS011;43673;51.058;3.734;2022-09-12T15:54:28;3.13;;;2.63;;
57842;SDS011;43673;51.058;3.734;2022-09-12T15:56:54;3.33;;;2.63;;
57842;SDS011;43673;51.058;3.734;2022-09-12T15:59:20;6.15;;;2.42;;
57842;SDS011;43673;51.058;3.734;2022-09-12T16:01:45;3.65;;;2.40;;
57842;SDS011;43673;51.058;3.734;2022-09-12T16:04:29;2.47;;;2.25;;
57842;SDS011;43673;51.058;3.734;2022-09-12T16:06:55;3.80;;;2.38;;
57842;SDS011;43673;51.058;3.734;2022-09-12T16:09:21;3.67;;;2.70;;
57842;SDS011;43673;51.058;3.734;2022-09-12T16:11:48;4.45;;;2.30;;
57842;SDS011;43673;51.058;3.734;2022-09-12T16:14:14;3.83;;;2.22;;
57842;SDS011;43673;51.058;3.734;2022-09-12T16:16:43;5.85;;;3.38;;
57842;SDS011;43673;51.058;3.734;2022-09-12T16:19:17;9.20;;;2.83;;
57842;SDS011;43673;51.058;3.734;2022-09-12T16:21:42;4.90;;;2.70;;
57842;SDS011;43673;51.058;3.734;2022-09-12T16:24:09;5.40;;;2.15;;
57842;SDS011;43673;51.058;3.734;2022-09-12T16:26:35;4.32;;;2.58;;
57842;SDS011;43673;51.058;3.734;2022-09-12T16:29:00;5.25;;;2.17;;
57842;SDS011;43673;51.058;3.734;2022-09-12T16:31:26;2.78;;;2.30;;
57842;SDS011;43673;51.058;3.734;2022-09-12T16:33:52;6.15;;;2.40;;
57842;SDS011;43673;51.058;3.734;2022-09-12T16:36:19;5.95;;;2.08;;
57842;SDS011;43673;51.058;3.734;2022-09-12T16:41:15;2.83;;;2.20;;
57842;SDS011;43673;51.058;3.734;2022-09-12T16:43:43;3.05;;;1.80;;
57842;SDS011;43673;51.058;3.734;2022-09-12T16:46:13;3.55;;;2.25;;
57842;SDS011;43673;51.058;3.734;2022-09-12T16:48:44;3.90;;;2.00;;
57842;SDS011;43673;51.058;3.734;2022-09-12T16:51:13;3.40;;;1.75;;
57842;SDS011;43673;51.058;3.734;2022-09-12T16:53:40;2.25;;;1.90;;
57842;SDS011;43673;51.058;3.734;2022-09-12T16:56:06;3.47;;;1.98;;
57842;SDS011;43673;51.058;3.734;2022-09-12T16:58:33;2.67;;;2.17;;
57842;SDS011;43673;51.058;3.734;2022-09-12T17:01:05;2.05;;;1.83;;
57842;SDS011;43673;51.058;3.734;2022-09-12T17:03:34;3.72;;;2.10;;
57842;SDS011;43673;51.058;3.734;2022-09-12T17:08:34;4.22;;;1.92;;
57842;SDS011;43673;51.058;3.734;2022-09-12T17:11:02;2.75;;;2.10;;
57842;SDS011;43673;51.058;3.734;2022-09-12T17:13:32;2.63;;;1.80;;
57842;SDS011;43673;51.058;3.734;2022-09-12T17:15:58;3.55;;;2.15;;
57842;SDS011;43673;51.058;3.734;2022-09-12T17:18:24;3.03;;;2.30;;
57842;SDS011;43673;51.058;3.734;2022-09-12T17:20:50;3.88;;;2.22;;
57842;SDS011;43673;51.058;3.734;2022-09-12T17:23:16;2.85;;;2.13;;
57842;SDS011;43673;51.058;3.734;2022-09-12T17:25:46;4.72;;;2.22;;
57842;SDS011;43673;51.058;3.734;2022-09-12T17:28:13;3.85;;;2.53;;
57842;SDS011;43673;51.058;3.734;2022-09-12T17:30:39;3.15;;;1.90;;